sensor_id;sensor_type;location;lat;lon;timestamp;pressure;altitude;pressure_sealevel;temperature;humidity
66560;BME280;53413;49.878;8.142;2023-04-23T00:01:03;99247.94;;;12.32;100.00
66560;BME280;53413;49.878;8.142;2023-04-23T00:03:30;99247.06;;;12.32;100.00
66560;BME280;53413;49.878;8.142;2023-04-23T00:05:58;99252.31;;;12.32;100.00
66560;BME280;53413;49.878;8.142;2023-04-23T00:08:25;99253.19;;;12.32;100.00
66560;BME280;53413;49.878;8.142;2023-04-23T00:10:51;99250.63;;;12.31;100.00
66560;BME280;53413;49.878;8.142;2023-04-23T00:13:16;99256.00;;;12.29;100.00
66560;BME280;53413;49.878;8.142;2023-04-23T00:15:42;99249.09;;;12.27;100.00
66560;BME280;53413;49.878;8.142;2023-04-23T00:18:08;99253.53;;;12.26;100.00
66560;BME280;53413;49.878;8.142;2023-04-23T00:20:34;99257.94;;;12.26;100.00
66560;BME280;53413;49.878;8.142;2023-04-23T00:23:00;99264.13;;;12.25;100.00
66560;BME280;53413;49.878;8.142;2023-04-23T00:25:25;99265.06;;;12.24;100.00
66560;BME280;53413;49.878;8.142;2023-04-23T00:27:51;99264.22;;;12.23;100.00
66560;BME280;53413;49.878;8.142;2023-04-23T00:30:16;99263.44;;;12.21;100.00
66560;BME280;53413;49.878;8.142;2023-04-23T00:32:43;99263.63;;;12.18;100.00
66560;BME280;53413;49.878;8.142;2023-04-23T00:35:08;99253.19;;;12.16;100.00
66560;BME280;53413;49.878;8.142;2023-04-23T00:37:34;99256.97;;;12.12;100.00
66560;BME280;53413;49.878;8.142;2023-04-23T00:39:59;99265.75;;;12.11;100.00
66560;BME280;53413;49.878;8.142;2023-04-23T00:42:27;99263.97;;;12.12;100.00
66560;BME280;53413;49.878;8.142;2023-04-23T00:44:52;99259.66;;;12.11;100.00
66560;BME280;53413;49.878;8.142;2023-04-23T00:47:18;99255.44;;;12.08;100.00
66560;BME280;53413;49.878;8.142;2023-04-23T00:49:45;99256.34;;;12.07;100.00
66560;BME280;53413;49.878;8.142;2023-04-23T00:52:10;99252.97;;;12.05;100.00
66560;BME280;53413;49.878;8.142;2023-04-23T00:54:35;99257.38;;;12.05;100.00
66560;BME280;53413;49.878;8.142;2023-04-23T00:57:01;99257.38;;;12.05;100.00
66560;BME280;53413;49.878;8.142;2023-04-23T00:59:28;99255.59;;;12.05;100.00
66560;BME280;53413;49.878;8.142;2023-04-23T01:01:54;99258.16;;;12.07;100.00
66560;BME280;53413;49.878;8.142;2023-04-23T01:04:21;99254.75;;;12.05;100.00
66560;BME280;53413;49.878;8.142;2023-04-23T01:06:48;99247.72;;;12.05;100.00
66560;BME280;53413;49.878;8.142;2023-04-23T01:09:14;99258.16;;;12.07;100.00
66560;BME280;53413;49.878;8.142;2023-04-23T01:11:42;99257.28;;;12.06;100.00
66560;BME280;53413;49.878;8.142;2023-04-23T01:14:09;99250.34;;;12.05;100.00
66560;BME280;53413;49.878;8.142;2023-04-23T01:16:35;99260.84;;;12.05;100.00
66560;BME280;53413;49.878;8.142;2023-04-23T01:19:04;99260.06;;;12.03;100.00
66560;BME280;53413;49.878;8.142;2023-04-23T01:21:29;99264.59;;;12.01;100.00
66560;BME280;53413;49.878;8.142;2023-04-23T01:23:57;99269.91;;;11.99;100.00
66560;BME280;53413;49.878;8.142;2023-04-23T01:26:24;99263.88;;;11.97;100.00
66560;BME280;53413;49.878;8.142;2023-04-23T01:28:50;99269.22;;;11.96;100.00
66560;BME280;53413;49.878;8.142;2023-04-23T01:31:16;99272.78;;;11.95;100.00
66560;BME280;53413;49.878;8.142;2023-04-23T01:33:43;99277.25;;;11.93;100.00
66560;BME280;53413;49.878;8.142;2023-04-23T01:36:09;99279.03;;;11.92;100.00
66560;BME280;53413;49.878;8.142;2023-04-23T01:38:37;99273.13;;;11.89;100.00
66560;BME280;53413;49.878;8.142;2023-04-23T01:41:03;99267.94;;;11.87;100.00
66560;BME280;53413;49.878;8.142;2023-04-23T01:43:30;99268.88;;;11.86;100.00
66560;BME280;53413;49.878;8.142;2023-04-23T01:45:56;99269.78;;;11.85;100.00
66560;BME280;53413;49.878;8.142;2023-04-23T01:48:22;99271.59;;;11.84;100.00
66560;BME280;53413;49.878;8.142;2023-04-23T01:50:49;99266.44;;;11.83;100.00
66560;BME280;53413;49.878;8.142;2023-04-23T01:53:15;99273.44;;;11.82;100.00
66560;BME280;53413;49.878;8.142;2023-04-23T01:55:42;99280.56;;;11.80;100.00
66560;BME280;53413;49.878;8.142;2023-04-23T01:58:07;99283.19;;;11.80;100.00
66560;BME280;53413;49.878;8.142;2023-04-23T02:00:32;99285.06;;;11.78;100.00
66560;BME280;53413;49.878;8.142;2023-04-23T02:02:58;99283.53;;;11.74;100.00
66560;BME280;53413;49.878;8.142;2023-04-23T02:05:24;99281.84;;;11.73;100.00
66560;BME280;53413;49.878;8.142;2023-04-23T02:07:50;99287.19;;;11.72;100.00
66560;BME280;53413;49.878;8.142;2023-04-23T02:10:16;99286.41;;;11.69;100.00
66560;BME280;53413;49.878;8.142;2023-04-23T02:12:44;99289.97;;;11.68;100.00
66560;BME280;53413;49.878;8.142;2023-04-23T02:15:10;99296.91;;;11.69;100.00
66560;BME280;53413;49.878;8.142;2023-04-23T02:17:36;99297.75;;;11.70;100.00
66560;BME280;53413;49.878;8.142;2023-04-23T02:20:01;99303.84;;;11.70;100.00
66560;BME280;53413;49.878;8.142;2023-04-23T02:22:27;99300.47;;;11.68;100.00
66560;BME280;53413;49.878;8.142;2023-04-23T02:24:53;99296.91;;;11.69;100.00
66560;BME280;53413;49.878;8.142;2023-04-23T02:27:19;99305.72;;;11.68;100.00
66560;BME280;53413;49.878;8.142;2023-04-23T02:29:46;99303.16;;;11.67;100.00
66560;BME280;53413;49.878;8.142;2023-04-23T02:32:12;99303.16;;;11.67;100.00
66560;BME280;53413;49.878;8.142;2023-04-23T02:34:37;99304.94;;;11.66;100.00
66560;BME280;53413;49.878;8.142;2023-04-23T02:37:03;99302.41;;;11.65;100.00
66560;BME280;53413;49.878;8.142;2023-04-23T02:39:31;99301.66;;;11.63;100.00
66560;BME280;53413;49.878;8.142;2023-04-23T02:41:57;99303.50;;;11.61;100.00
66560;BME280;53413;49.878;8.142;2023-04-23T02:44:23;99310.53;;;11.60;100.00
66560;BME280;53413;49.878;8.142;2023-04-23T02:46:49;99309.78;;;11.58;100.00
66560;BME280;53413;49.878;8.142;2023-04-23T02:49:15;99312.38;;;11.58;100.00
66560;BME280;53413;49.878;8.142;2023-04-23T02:51:41;99306.28;;;11.58;100.00
66560;BME280;53413;49.878;8.142;2023-04-23T02:54:06;99307.91;;;11.60;100.00
66560;BME280;53413;49.878;8.142;2023-04-23T02:56:32;99304.53;;;11.58;100.00
66560;BME280;53413;49.878;8.142;2023-04-23T02:58:57;99308.06;;;11.57;100.00
66560;BME280;53413;49.878;8.142;2023-04-23T03:01:23;99307.97;;;11.59;100.00
66560;BME280;53413;49.878;8.142;2023-04-23T03:03:48;99299.28;;;11.58;100.00
66560;BME280;53413;49.878;8.142;2023-04-23T03:06:13;99306.22;;;11.59;100.00
66560;BME280;53413;49.878;8.142;2023-04-23T03:08:39;99314.94;;;11.60;100.00
66560;BME280;53413;49.878;8.142;2023-04-23T03:11:04;99310.69;;;11.57;100.00
66560;BME280;53413;49.878;8.142;2023-04-23T03:13:30;99300.19;;;11.57;100.00
66560;BME280;53413;49.878;8.142;2023-04-23T03:15:55;99298.59;;;11.54;100.00
66560;BME280;53413;49.878;8.142;2023-04-23T03:18:21;99300.34;;;11.54;100.00
66560;BME280;53413;49.878;8.142;2023-04-23T03:20:46;99296.03;;;11.53;100.00
66560;BME280;53413;49.878;8.142;2023-04-23T03:23:12;99300.59;;;11.49;100.00
66560;BME280;53413;49.878;8.142;2023-04-23T03:25:37;99293.75;;;11.47;100.00
66560;BME280;53413;49.878;8.142;2023-04-23T03:28:03;99296.38;;;11.47;100.00
66560;BME280;53413;49.878;8.142;2023-04-23T03:30:28;99291.13;;;11.47;100.00
66560;BME280;53413;49.878;8.142;2023-04-23T03:32:55;99293.81;;;11.45;100.00
66560;BME280;53413;49.878;8.142;2023-04-23T03:35:22;99289.44;;;11.46;100.00
66560;BME280;53413;49.878;8.142;2023-04-23T03:37:47;99285.94;;;11.45;100.00
66560;BME280;53413;49.878;8.142;2023-04-23T03:40:13;99288.66;;;11.44;100.00
66560;BME280;53413;49.878;8.142;2023-04-23T03:42:38;99291.53;;;11.39;100.00
66560;BME280;53413;49.878;8.142;2023-04-23T03:45:04;99297.88;;;11.35;100.00
66560;BME280;53413;49.878;8.142;2023-04-23T03:47:30;99300.63;;;11.32;100.00
66560;BME280;53413;49.878;8.142;2023-04-23T03:49:55;99300.88;;;11.27;100.00
66560;BME280;53413;49.878;8.142;2023-04-23T03:52:21;99295.81;;;11.24;100.00
66560;BME280;53413;49.878;8.142;2023-04-23T03:54:46;99299.44;;;11.21;100.00
66560;BME280;53413;49.878;8.142;2023-04-23T03:57:12;99296.13;;;11.18;100.00
66560;BME280;53413;49.878;8.142;2023-04-23T03:59:37;99297.00;;;11.18;100.00
66560;BME280;53413;49.878;8.142;2023-04-23T04:02:03;99296.22;;;11.16;100.00
66560;BME280;53413;49.878;8.142;2023-04-23T04:04:29;99305.06;;;11.14;100.00
66560;BME280;53413;49.878;8.142;2023-04-23T04:06:55;99305.25;;;11.11;100.00
66560;BME280;53413;49.878;8.142;2023-04-23T04:09:20;99313.19;;;11.09;100.00
66560;BME280;53413;49.878;8.142;2023-04-23T04:11:46;99317.59;;;11.08;100.00
66560;BME280;53413;49.878;8.142;2023-04-23T04:14:12;99320.22;;;11.08;100.00
66560;BME280;53413;49.878;8.142;2023-04-23T04:16:37;99313.28;;;11.07;100.00
66560;BME280;53413;49.878;8.142;2023-04-23T04:19:03;99320.13;;;11.10;100.00
66560;BME280;53413;49.878;8.142;2023-04-23T04:21:28;99323.53;;;11.12;100.00
66560;BME280;53413;49.878;8.142;2023-04-23T04:23:54;99320.81;;;11.14;100.00
66560;BME280;53413;49.878;8.142;2023-04-23T04:26:20;99316.50;;;11.13;100.00
66560;BME280;53413;49.878;8.142;2023-04-23T04:28:45;99322.69;;;11.12;100.00
66560;BME280;53413;49.878;8.142;2023-04-23T04:31:12;99319.09;;;11.13;100.00
66560;BME280;53413;49.878;8.142;2023-04-23T04:33:38;99321.81;;;11.11;100.00
66560;BME280;53413;49.878;8.142;2023-04-23T04:36:04;99321.03;;;11.09;100.00
66560;BME280;53413;49.878;8.142;2023-04-23T04:38:29;99319.59;;;11.03;100.00
66560;BME280;53413;49.878;8.142;2023-04-23T04:40:55;99320.69;;;10.99;100.00
66560;BME280;53413;49.878;8.142;2023-04-23T04:43:24;99314.00;;;10.93;100.00
66560;BME280;53413;49.878;8.142;2023-04-23T04:45:50;99313.22;;;10.91;100.00
66560;BME280;53413;49.878;8.142;2023-04-23T04:48:16;99308.91;;;10.90;100.00
66560;BME280;53413;49.878;8.142;2023-04-23T04:50:41;99315.16;;;10.88;100.00
66560;BME280;53413;49.878;8.142;2023-04-23T04:53:06;99311.13;;;10.81;100.00
66560;BME280;53413;49.878;8.142;2023-04-23T04:55:32;99320.28;;;10.72;100.00
66560;BME280;53413;49.878;8.142;2023-04-23T04:57:57;99321.63;;;10.63;100.00
66560;BME280;53413;49.878;8.142;2023-04-23T05:00:24;99312.34;;;10.56;100.00
66560;BME280;53413;49.878;8.142;2023-04-23T05:02:52;99314.44;;;10.49;100.00
66560;BME280;53413;49.878;8.142;2023-04-23T05:05:20;99317.59;;;10.38;100.00
66560;BME280;53413;49.878;8.142;2023-04-23T05:07:46;99315.34;;;10.29;100.00
66560;BME280;53413;49.878;8.142;2023-04-23T05:10:12;99315.81;;;10.20;100.00
66560;BME280;53413;49.878;8.142;2023-04-23T05:12:38;99327.50;;;10.12;100.00
66560;BME280;53413;49.878;8.142;2023-04-23T05:15:06;99328.66;;;10.07;100.00
66560;BME280;53413;49.878;8.142;2023-04-23T05:17:32;99320.84;;;10.05;100.00
66560;BME280;53413;49.878;8.142;2023-04-23T05:19:57;99321.84;;;10.02;100.00
66560;BME280;53413;49.878;8.142;2023-04-23T05:22:22;99320.00;;;10.05;100.00
66560;BME280;53413;49.878;8.142;2023-04-23T05:24:48;99325.88;;;10.10;100.00
66560;BME280;53413;49.878;8.142;2023-04-23T05:27:13;99328.28;;;10.14;100.00
66560;BME280;53413;49.878;8.142;2023-04-23T05:29:39;99330.59;;;10.21;100.00
66560;BME280;53413;49.878;8.142;2023-04-23T05:32:05;99332.94;;;10.27;100.00
66560;BME280;53413;49.878;8.142;2023-04-23T05:34:30;99337.88;;;10.33;100.00
66560;BME280;53413;49.878;8.142;2023-04-23T05:36:56;99339.31;;;10.40;100.00
66560;BME280;53413;49.878;8.142;2023-04-23T05:39:21;99331.84;;;10.50;100.00
66560;BME280;53413;49.878;8.142;2023-04-23T05:41:46;99338.31;;;10.60;100.00
66560;BME280;53413;49.878;8.142;2023-04-23T05:44:12;99334.25;;;10.72;100.00
66560;BME280;53413;49.878;8.142;2023-04-23T05:46:37;99344.97;;;10.85;100.00
66560;BME280;53413;49.878;8.142;2023-04-23T05:49:02;99335.66;;;10.97;100.00
66560;BME280;53413;49.878;8.142;2023-04-23T05:51:28;99333.31;;;11.08;100.00
66560;BME280;53413;49.878;8.142;2023-04-23T05:53:53;99336.84;;;11.25;100.00
66560;BME280;53413;49.878;8.142;2023-04-23T05:56:18;99340.38;;;11.42;100.00
66560;BME280;53413;49.878;8.142;2023-04-23T05:58:44;99340.25;;;11.61;100.00
66560;BME280;53413;49.878;8.142;2023-04-23T06:01:09;99338.25;;;11.82;100.00
66560;BME280;53413;49.878;8.142;2023-04-23T06:03:35;99333.69;;;12.01;100.00
66560;BME280;53413;49.878;8.142;2023-04-23T06:06:01;99334.34;;;12.21;100.00
66560;BME280;53413;49.878;8.142;2023-04-23T06:08:26;99323.66;;;12.56;100.00
66560;BME280;53413;49.878;8.142;2023-04-23T06:10:52;99327.84;;;15.91;100.00
66560;BME280;53413;49.878;8.142;2023-04-23T06:13:17;99320.56;;;20.76;100.00
66560;BME280;53413;49.878;8.142;2023-04-23T06:15:43;99320.53;;;24.54;76.07
66560;BME280;53413;49.878;8.142;2023-04-23T06:18:08;99325.00;;;26.94;59.88
66560;BME280;53413;49.878;8.142;2023-04-23T06:20:34;99330.94;;;28.68;50.70
66560;BME280;53413;49.878;8.142;2023-04-23T06:22:59;99326.91;;;30.19;45.65
66560;BME280;53413;49.878;8.142;2023-04-23T06:25:26;99329.31;;;30.90;43.45
66560;BME280;53413;49.878;8.142;2023-04-23T06:27:52;99336.34;;;27.19;48.25
66560;BME280;53413;49.878;8.142;2023-04-23T06:30:17;99340.53;;;23.74;54.36
66560;BME280;53413;49.878;8.142;2023-04-23T06:32:43;99334.38;;;22.40;60.62
66560;BME280;53413;49.878;8.142;2023-04-23T06:35:08;99328.25;;;24.57;55.66
66560;BME280;53413;49.878;8.142;2023-04-23T06:37:34;99311.16;;;27.35;50.24
66560;BME280;53413;49.878;8.142;2023-04-23T06:39:59;99297.69;;;29.81;45.47
66560;BME280;53413;49.878;8.142;2023-04-23T06:42:25;99296.94;;;31.55;41.56
66560;BME280;53413;49.878;8.142;2023-04-23T06:44:50;99301.13;;;32.67;39.38
66560;BME280;53413;49.878;8.142;2023-04-23T06:47:16;99299.41;;;33.61;38.10
66560;BME280;53413;49.878;8.142;2023-04-23T06:49:41;99288.91;;;34.56;36.11
66560;BME280;53413;49.878;8.142;2023-04-23T06:52:06;99285.81;;;35.36;33.89
66560;BME280;53413;49.878;8.142;2023-04-23T06:54:32;99277.16;;;36.20;32.79
66560;BME280;53413;49.878;8.142;2023-04-23T06:56:57;99273.69;;;36.76;31.50
66560;BME280;53413;49.878;8.142;2023-04-23T06:59:22;99258.66;;;37.52;31.33
66560;BME280;53413;49.878;8.142;2023-04-23T07:01:48;99263.59;;;37.55;30.55
66560;BME280;53413;49.878;8.142;2023-04-23T07:04:13;99270.72;;;37.56;29.68
66560;BME280;53413;49.878;8.142;2023-04-23T07:06:38;99271.50;;;37.79;28.64
66560;BME280;53413;49.878;8.142;2023-04-23T07:09:04;99268.16;;;38.54;28.54
66560;BME280;53413;49.878;8.142;2023-04-23T07:11:30;99266.84;;;38.67;28.12
66560;BME280;53413;49.878;8.142;2023-04-23T07:13:58;99255.94;;;39.15;28.30
66560;BME280;53413;49.878;8.142;2023-04-23T07:16:23;99252.69;;;39.23;26.80
66560;BME280;53413;49.878;8.142;2023-04-23T07:18:49;99256.47;;;39.12;27.24
66560;BME280;53413;49.878;8.142;2023-04-23T07:21:15;99245.22;;;39.77;26.38
66560;BME280;53413;49.878;8.142;2023-04-23T07:23:40;99246.66;;;40.16;26.26
66560;BME280;53413;49.878;8.142;2023-04-23T07:26:06;99248.66;;;39.36;26.69
66560;BME280;53413;49.878;8.142;2023-04-23T07:28:31;99246.78;;;39.47;27.05
66560;BME280;53413;49.878;8.142;2023-04-23T07:30:57;99250.72;;;39.08;25.97
66560;BME280;53413;49.878;8.142;2023-04-23T07:33:22;99243.31;;;39.09;26.17
66560;BME280;53413;49.878;8.142;2023-04-23T07:35:48;99245.50;;;39.12;26.25
66560;BME280;53413;49.878;8.142;2023-04-23T07:38:13;99247.25;;;39.29;26.40
66560;BME280;53413;49.878;8.142;2023-04-23T07:40:38;99240.59;;;39.19;26.03
66560;BME280;53413;49.878;8.142;2023-04-23T07:43:04;99241.69;;;39.18;25.07
66560;BME280;53413;49.878;8.142;2023-04-23T07:45:30;99232.66;;;40.07;24.74
66560;BME280;53413;49.878;8.142;2023-04-23T07:47:55;99229.91;;;40.28;25.03
66560;BME280;53413;49.878;8.142;2023-04-23T07:50:20;99232.03;;;40.93;24.09
66560;BME280;53413;49.878;8.142;2023-04-23T07:52:46;99233.50;;;40.65;24.30
66560;BME280;53413;49.878;8.142;2023-04-23T07:55:11;99234.44;;;41.20;23.90
66560;BME280;53413;49.878;8.142;2023-04-23T07:57:36;99228.91;;;42.21;22.80
66560;BME280;53413;49.878;8.142;2023-04-23T08:00:03;99224.63;;;42.34;22.96
66560;BME280;53413;49.878;8.142;2023-04-23T08:02:29;99229.22;;;38.47;25.27
66560;BME280;53413;49.878;8.142;2023-04-23T08:04:54;99235.69;;;37.53;27.17
66560;BME280;53413;49.878;8.142;2023-04-23T08:07:19;99228.53;;;36.17;28.16
66560;BME280;53413;49.878;8.142;2023-04-23T08:09:45;99239.50;;;37.30;26.84
66560;BME280;53413;49.878;8.142;2023-04-23T08:12:10;99246.53;;;33.75;29.37
66560;BME280;53413;49.878;8.142;2023-04-23T08:14:36;99246.88;;;30.38;34.02
66560;BME280;53413;49.878;8.142;2023-04-23T08:17:01;99237.59;;;30.54;35.17
66560;BME280;53413;49.878;8.142;2023-04-23T08:19:26;99243.06;;;29.86;35.07
66560;BME280;53413;49.878;8.142;2023-04-23T08:21:55;99229.88;;;31.57;33.78
66560;BME280;53413;49.878;8.142;2023-04-23T08:24:21;99233.66;;;31.50;34.40
66560;BME280;53413;49.878;8.142;2023-04-23T08:26:46;99237.44;;;29.87;35.17
66560;BME280;53413;49.878;8.142;2023-04-23T08:29:12;99240.63;;;28.29;37.89
66560;BME280;53413;49.878;8.142;2023-04-23T08:31:38;99245.41;;;27.75;39.18
66560;BME280;53413;49.878;8.142;2023-04-23T08:34:03;99233.41;;;29.56;35.87
66560;BME280;53413;49.878;8.142;2023-04-23T08:36:28;99237.63;;;28.67;37.18
66560;BME280;53413;49.878;8.142;2023-04-23T08:38:54;99231.47;;;27.49;40.00
66560;BME280;53413;49.878;8.142;2023-04-23T08:41:26;99236.66;;;26.53;40.51
66560;BME280;53413;49.878;8.142;2023-04-23T08:44:10;99234.72;;;27.15;39.46
66560;BME280;53413;49.878;8.142;2023-04-23T08:46:40;99235.00;;;31.07;35.07
66560;BME280;53413;49.878;8.142;2023-04-23T08:49:06;99228.75;;;31.13;35.11
66560;BME280;53413;49.878;8.142;2023-04-23T08:51:37;99232.59;;;29.62;35.85
66560;BME280;53413;49.878;8.142;2023-04-23T08:54:03;99233.13;;;28.24;38.37
66560;BME280;53413;49.878;8.142;2023-04-23T08:56:30;99239.06;;;27.31;40.19
66560;BME280;53413;49.878;8.142;2023-04-23T08:58:57;99235.38;;;26.64;40.93
66560;BME280;53413;49.878;8.142;2023-04-23T09:01:22;99240.78;;;26.40;41.96
66560;BME280;53413;49.878;8.142;2023-04-23T09:03:48;99236.13;;;25.88;41.58
66560;BME280;53413;49.878;8.142;2023-04-23T09:06:14;99224.53;;;26.95;41.32
66560;BME280;53413;49.878;8.142;2023-04-23T09:08:39;99220.53;;;29.65;37.54
66560;BME280;53413;49.878;8.142;2023-04-23T09:11:05;99218.31;;;31.10;35.31
66560;BME280;53413;49.878;8.142;2023-04-23T09:13:32;99207.94;;;33.73;31.46
66560;BME280;53413;49.878;8.142;2023-04-23T09:15:59;99208.16;;;35.91;30.05
66560;BME280;53413;49.878;8.142;2023-04-23T09:18:25;99206.53;;;37.15;28.32
66560;BME280;53413;49.878;8.142;2023-04-23T09:20:51;99201.38;;;37.18;27.92
66560;BME280;53413;49.878;8.142;2023-04-23T09:23:20;99198.13;;;37.93;26.93
66560;BME280;53413;49.878;8.142;2023-04-23T09:25:46;99205.78;;;37.69;26.60
66560;BME280;53413;49.878;8.142;2023-04-23T09:28:12;99203.28;;;35.76;29.15
66560;BME280;53413;49.878;8.142;2023-04-23T09:30:42;99200.06;;;34.74;29.25
66560;BME280;53413;49.878;8.142;2023-04-23T09:33:12;99193.75;;;33.71;30.17
66560;BME280;53413;49.878;8.142;2023-04-23T09:35:37;99185.69;;;34.07;31.03
66560;BME280;53413;49.878;8.142;2023-04-23T09:38:03;99176.63;;;34.73;29.84
66560;BME280;53413;49.878;8.142;2023-04-23T09:40:32;99179.13;;;34.27;30.34
66560;BME280;53413;49.878;8.142;2023-04-23T09:42:57;99172.38;;;33.44;31.01
66560;BME280;53413;49.878;8.142;2023-04-23T09:45:23;99174.03;;;31.56;32.88
66560;BME280;53413;49.878;8.142;2023-04-23T09:47:56;99180.53;;;30.96;34.12
66560;BME280;53413;49.878;8.142;2023-04-23T09:50:38;99178.72;;;30.30;34.61
66560;BME280;53413;49.878;8.142;2023-04-23T09:53:05;99174.28;;;29.88;35.85
66560;BME280;53413;49.878;8.142;2023-04-23T09:55:33;99172.19;;;29.70;36.14
66560;BME280;53413;49.878;8.142;2023-04-23T09:58:03;99169.19;;;29.38;35.75
66560;BME280;53413;49.878;8.142;2023-04-23T10:00:37;99171.19;;;28.52;37.48
66560;BME280;53413;49.878;8.142;2023-04-23T10:03:02;99179.41;;;27.57;38.97
66560;BME280;53413;49.878;8.142;2023-04-23T10:05:30;99179.72;;;26.72;41.39
66560;BME280;53413;49.878;8.142;2023-04-23T10:07:56;99171.75;;;26.03;42.24
66560;BME280;53413;49.878;8.142;2023-04-23T10:10:22;99172.63;;;25.48;43.62
66560;BME280;53413;49.878;8.142;2023-04-23T10:12:50;99167.88;;;24.38;45.00
66560;BME280;53413;49.878;8.142;2023-04-23T10:15:17;99165.50;;;23.60;46.18
66560;BME280;53413;49.878;8.142;2023-04-23T10:17:45;99161.84;;;22.92;47.71
66560;BME280;53413;49.878;8.142;2023-04-23T10:20:21;99168.63;;;22.07;49.59
66560;BME280;53413;49.878;8.142;2023-04-23T10:22:47;99171.59;;;21.40;51.17
66560;BME280;53413;49.878;8.142;2023-04-23T10:25:14;99174.78;;;20.88;53.00
66560;BME280;53413;49.878;8.142;2023-04-23T10:27:42;99168.31;;;20.33;55.61
66560;BME280;53413;49.878;8.142;2023-04-23T10:30:11;99171.16;;;20.02;56.67
66560;BME280;53413;49.878;8.142;2023-04-23T10:32:40;99175.28;;;19.75;56.57
66560;BME280;53413;49.878;8.142;2023-04-23T10:35:07;99166.75;;;19.72;56.98
66560;BME280;53413;49.878;8.142;2023-04-23T10:37:34;99148.47;;;20.18;55.69
66560;BME280;53413;49.878;8.142;2023-04-23T10:40:05;99151.06;;;21.04;53.66
66560;BME280;53413;49.878;8.142;2023-04-23T10:42:33;99144.19;;;21.94;53.77
66560;BME280;53413;49.878;8.142;2023-04-23T10:44:59;99143.66;;;22.53;50.91
66560;BME280;53413;49.878;8.142;2023-04-23T10:47:27;99142.16;;;22.93;50.33
66560;BME280;53413;49.878;8.142;2023-04-23T10:49:53;99148.22;;;23.03;49.40
66560;BME280;53413;49.878;8.142;2023-04-23T10:52:18;99141.94;;;23.13;49.34
66560;BME280;53413;49.878;8.142;2023-04-23T10:54:55;99130.25;;;23.14;49.10
66560;BME280;53413;49.878;8.142;2023-04-23T10:57:22;99126.84;;;23.46;48.59
66560;BME280;53413;49.878;8.142;2023-04-23T10:59:52;99120.03;;;23.60;47.90
66560;BME280;53413;49.878;8.142;2023-04-23T11:02:18;99115.31;;;23.54;48.37
66560;BME280;53413;49.878;8.142;2023-04-23T11:04:46;99110.81;;;23.63;48.35
66560;BME280;53413;49.878;8.142;2023-04-23T11:07:12;99102.16;;;23.77;48.84
66560;BME280;53413;49.878;8.142;2023-04-23T11:12:09;99098.47;;;23.45;48.52
66560;BME280;53413;49.878;8.142;2023-04-23T11:17:10;99110.38;;;22.73;50.31
66560;BME280;53413;49.878;8.142;2023-04-23T11:19:36;99101.78;;;22.09;52.32
66560;BME280;53413;49.878;8.142;2023-04-23T11:22:15;99108.53;;;21.77;52.70
66560;BME280;53413;49.878;8.142;2023-04-23T11:24:45;99102.50;;;21.57;54.56
66560;BME280;53413;49.878;8.142;2023-04-23T11:27:16;99093.66;;;21.74;52.53
66560;BME280;53413;49.878;8.142;2023-04-23T11:29:45;99091.06;;;22.53;51.51
66560;BME280;53413;49.878;8.142;2023-04-23T11:32:12;99089.22;;;23.40;48.25
66560;BME280;53413;49.878;8.142;2023-04-23T11:34:41;99082.75;;;23.92;46.98
66560;BME280;53413;49.878;8.142;2023-04-23T11:37:12;99092.44;;;23.85;47.46
66560;BME280;53413;49.878;8.142;2023-04-23T11:39:38;99081.09;;;23.74;46.92
66560;BME280;53413;49.878;8.142;2023-04-23T11:42:11;99074.88;;;23.57;47.54
66560;BME280;53413;49.878;8.142;2023-04-23T11:44:38;99066.84;;;23.32;47.42
66560;BME280;53413;49.878;8.142;2023-04-23T11:47:06;99065.63;;;23.18;47.85
66560;BME280;53413;49.878;8.142;2023-04-23T11:49:32;99062.16;;;23.26;48.27
66560;BME280;53413;49.878;8.142;2023-04-23T11:51:58;99051.66;;;23.33;48.38
66560;BME280;53413;49.878;8.142;2023-04-23T11:54:26;99059.50;;;23.67;47.52
66560;BME280;53413;49.878;8.142;2023-04-23T11:56:52;99045.66;;;23.80;46.26
66560;BME280;53413;49.878;8.142;2023-04-23T11:59:18;99040.44;;;23.79;47.53
66560;BME280;53413;49.878;8.142;2023-04-23T12:01:50;99040.38;;;24.45;46.00
66560;BME280;53413;49.878;8.142;2023-04-23T12:04:20;99036.25;;;24.66;45.15
66560;BME280;53413;49.878;8.142;2023-04-23T12:06:47;99037.16;;;24.50;45.71
66560;BME280;53413;49.878;8.142;2023-04-23T12:09:14;99032.63;;;24.50;45.26
66560;BME280;53413;49.878;8.142;2023-04-23T12:11:41;99030.13;;;24.49;45.97
66560;BME280;53413;49.878;8.142;2023-04-23T12:14:08;99024.97;;;24.47;45.00
66560;BME280;53413;49.878;8.142;2023-04-23T12:16:35;99024.38;;;24.12;46.00
66560;BME280;53413;49.878;8.142;2023-04-23T12:19:01;99001.84;;;23.65;45.93
66560;BME280;53413;49.878;8.142;2023-04-23T12:21:26;99000.19;;;23.39;46.72
66560;BME280;53413;49.878;8.142;2023-04-23T12:23:55;99003.00;;;23.29;45.30
66560;BME280;53413;49.878;8.142;2023-04-23T12:26:23;99002.03;;;23.47;46.06
66560;BME280;53413;49.878;8.142;2023-04-23T12:28:50;98992.13;;;23.72;45.49
66560;BME280;53413;49.878;8.142;2023-04-23T12:31:22;98997.59;;;24.20;44.98
66560;BME280;53413;49.878;8.142;2023-04-23T12:33:57;98996.09;;;24.66;44.18
66560;BME280;53413;49.878;8.142;2023-04-23T12:36:27;98978.94;;;24.43;43.92
66560;BME280;53413;49.878;8.142;2023-04-23T12:38:53;98977.25;;;24.42;43.73
66560;BME280;53413;49.878;8.142;2023-04-23T12:41:21;98982.28;;;24.46;44.38
66560;BME280;53413;49.878;8.142;2023-04-23T12:43:47;98981.06;;;24.17;44.78
66560;BME280;53413;49.878;8.142;2023-04-23T12:46:14;98967.91;;;23.65;43.82
66560;BME280;53413;49.878;8.142;2023-04-23T12:48:39;98965.28;;;23.24;44.27
66560;BME280;53413;49.878;8.142;2023-04-23T12:51:05;98959.53;;;23.11;44.93
66560;BME280;53413;49.878;8.142;2023-04-23T12:53:31;98964.22;;;23.09;45.95
66560;BME280;53413;49.878;8.142;2023-04-23T12:55:56;98967.06;;;23.15;46.14